Time;durP1;ratioP1;P1;durP2;ratioP2;P2;SDS_P1;SDS_P2;PMS_P1;PMS_P2;Temp;Humidity;BMP_temperature;BMP_pressure;BME280_temperature;BME280_humidity;BME280_pressure;Samples;Min_cycle;Max_cycle;Signal;HPM_P1;HPM_P2
2022/07/19 13:22:03;;;;;;;4.50;1.65;;;;;;;;;;5120972;27;20335;-80
2022/07/19 13:24:47;;;;;;;5.25;1.45;;;;;;;;;;5107051;28;20054;-79
2022/07/19 13:27:31;;;;;;;4.85;1.40;;;;;;;;;;5130269;27;20031;-81
2022/07/19 13:30:16;;;;;;;5.30;1.40;;;;;;;;;;5107063;28;20038;-80
2022/07/19 13:33:00;;;;;;;6.32;1.42;;;;;;;;;;5091021;28;20085;-80
2022/07/19 13:35:45;;;;;;;6.13;1.60;;;;;;;;;;5104906;28;20098;-81
2022/07/19 13:38:30;;;;;;;3.90;1.50;;;;;;;;;;5098976;28;20063;-80
2022/07/19 13:41:15;;;;;;;7.45;1.70;;;;;;;;;;5103256;28;20050;-79
2022/07/19 13:44:00;;;;;;;5.53;1.38;;;;;;;;;;5097299;28;20131;-79
2022/07/19 13:46:45;;;;;;;4.35;1.55;;;;;;;;;;5104150;28;20100;-80
2022/07/19 13:49:30;;;;;;;2.70;1.45;;;;;;;;;;5101641;28;20034;-80
2022/07/19 13:52:15;;;;;;;6.03;1.00;;;;;;;;;;5101993;28;20070;-80
2022/07/19 13:54:59;;;;;;;4.55;1.50;;;;;;;;;;5102355;28;20124;-80
2022/07/19 13:57:44;;;;;;;5.13;1.17;;;;;;;;;;5103492;28;20510;-80
2022/07/19 14:00:28;;;;;;;3.28;1.25;;;;;;;;;;5102709;28;20047;-80
2022/07/19 14:03:17;;;;;;;2.85;1.42;;;;;;;;;;5104201;28;20089;-80
2022/07/19 14:06:01;;;;;;;5.38;1.40;;;;;;;;;;5100691;28;20042;-80
2022/07/19 14:08:46;;;;;;;2.45;1.38;;;;;;;;;;5102090;28;20038;-80
2022/07/19 14:11:30;;;;;;;3.45;1.30;;;;;;;;;;5117721;27;20050;-80
2022/07/19 14:14:15;;;;;;;2.90;1.17;;;;;;;;;;5115001;27;20084;-79
2022/07/19 14:16:59;;;;;;;4.85;1.30;;;;;;;;;;5099903;28;20058;-79
2022/07/19 14:19:44;;;;;;;2.90;1.40;;;;;;;;;;5099425;28;20046;-80
2022/07/19 14:22:29;;;;;;;3.22;1.20;;;;;;;;;;5102454;28;20117;-79
2022/07/19 14:25:13;;;;;;;5.57;1.88;;;;;;;;;;5112322;27;20522;-80
2022/07/19 14:27:58;;;;;;;3.65;1.20;;;;;;;;;;5113559;27;20119;-80
2022/07/19 14:30:43;;;;;;;5.85;1.40;;;;;;;;;;5103399;28;20047;-80
2022/07/19 14:33:28;;;;;;;4.28;1.30;;;;;;;;;;5087723;28;20093;-80
2022/07/19 14:36:13;;;;;;;3.40;1.50;;;;;;;;;;5088538;28;20043;-78
2022/07/19 14:38:57;;;;;;;4.32;1.60;;;;;;;;;;5086732;28;20039;-78
2022/07/19 14:41:42;;;;;;;3.67;1.17;;;;;;;;;;5086484;28;20043;-79
2022/07/19 14:44:27;;;;;;;6.13;1.70;;;;;;;;;;5086010;28;20490;-81
2022/07/19 14:47:11;;;;;;;6.78;1.95;;;;;;;;;;5087755;28;20442;-80
2022/07/19 14:49:56;;;;;;;2.00;1.20;;;;;;;;;;5088181;28;20050;-78
2022/07/19 14:52:41;;;;;;;3.30;1.20;;;;;;;;;;5087973;28;20532;-81
2022/07/19 14:55:27;;;;;;;4.90;1.55;;;;;;;;;;5086980;28;20038;-79
2022/07/19 14:58:12;;;;;;;3.80;1.50;;;;;;;;;;5085417;28;20066;-81
2022/07/19 15:00:57;;;;;;;3.95;1.40;;;;;;;;;;5087628;28;20093;-81
2022/07/19 15:03:41;;;;;;;5.55;1.48;;;;;;;;;;5089089;28;20040;-81
2022/07/19 15:06:26;;;;;;;3.45;1.50;;;;;;;;;;5087577;28;20486;-81
2022/07/19 15:09:12;;;;;;;5.10;1.58;;;;;;;;;;5085705;28;20471;-81
2022/07/19 15:12:00;;;;;;;5.07;1.45;;;;;;;;;;5087131;28;20042;-82
2022/07/19 15:14:45;;;;;;;4.75;1.83;;;;;;;;;;5095901;28;20054;-81
2022/07/19 15:17:29;;;;;;;2.78;1.52;;;;;;;;;;5084599;28;20043;-81
2022/07/19 15:20:14;;;;;;;3.05;1.25;;;;;;;;;;5087542;28;20094;-82
2022/07/19 15:22:58;;;;;;;4.55;1.73;;;;;;;;;;5073021;28;20140;-80
2022/07/19 15:25:43;;;;;;;3.67;1.40;;;;;;;;;;5097063;28;20458;-80
2022/07/19 15:31:32;;;;;;;5.88;1.80;;;;;;;;;;5080591;27;21024;-82
2022/07/19 15:34:17;;;;;;;5.50;1.60;;;;;;;;;;5065621;28;20114;-79
2022/07/19 15:37:01;;;;;;;3.00;1.35;;;;;;;;;;5058835;28;20059;-81
2022/07/19 15:39:46;;;;;;;5.43;1.40;;;;;;;;;;5064430;28;20047;-81
2022/07/19 15:42:31;;;;;;;5.53;1.40;;;;;;;;;;5064703;28;20086;-81
2022/07/19 15:45:16;;;;;;;8.50;1.83;;;;;;;;;;5064003;28;20496;-81
2022/07/19 15:48:01;;;;;;;4.22;1.58;;;;;;;;;;5065065;28;20039;-81
2022/07/19 15:50:46;;;;;;;4.57;1.35;;;;;;;;;;5063356;28;20047;-81
2022/07/19 15:53:31;;;;;;;6.07;1.50;;;;;;;;;;5063388;28;20063;-81
2022/07/19 15:56:15;;;;;;;4.57;1.60;;;;;;;;;;5065959;28;20043;-80
2022/07/19 15:59:00;;;;;;;4.88;2.22;;;;;;;;;;5051863;28;20086;-80
2022/07/19 16:01:44;;;;;;;4.90;1.60;;;;;;;;;;5065904;28;20451;-80
2022/07/19 16:04:29;;;;;;;30.05;26.90;;;;;;;;;;5068206;28;20401;-80
2022/07/19 16:07:14;;;;;;;10.82;3.97;;;;;;;;;;5068587;28;20079;-80
2022/07/19 16:09:59;;;;;;;28.67;25.70;;;;;;;;;;5067946;28;20074;-80
2022/07/19 18:56:58;;;;;;;8.98;3.50;;;;;;;;;;5104918;27;20441;-80
2022/07/19 18:59:42;;;;;;;10.82;3.40;;;;;;;;;;5105221;28;20043;-81
2022/07/19 19:02:27;;;;;;;10.38;3.17;;;;;;;;;;5101090;28;20042;-80
2022/07/19 19:05:12;;;;;;;6.47;4.00;;;;;;;;;;5091526;28;20043;-81
2022/07/19 19:07:56;;;;;;;13.23;4.32;;;;;;;;;;5106018;28;20053;-81
2022/07/19 19:10:41;;;;;;;10.38;3.47;;;;;;;;;;5103174;28;20044;-81
2022/07/19 19:13:26;;;;;;;9.65;2.88;;;;;;;;;;5103452;28;20038;-80
2022/07/19 19:16:11;;;;;;;6.78;3.05;;;;;;;;;;5098741;28;20570;-80
2022/07/19 19:18:55;;;;;;;5.88;2.55;;;;;;;;;;5088100;28;20420;-80
2022/07/19 19:21:40;;;;;;;6.95;2.75;;;;;;;;;;5088898;28;20042;-81
2022/07/19 19:24:24;;;;;;;6.20;2.33;;;;;;;;;;5087436;28;20043;-80
2022/07/19 19:27:09;;;;;;;7.38;2.67;;;;;;;;;;5088460;28;20504;-82
2022/07/19 19:29:53;;;;;;;7.00;2.53;;;;;;;;;;5087663;28;20040;-81
2022/07/19 19:32:38;;;;;;;5.03;2.67;;;;;;;;;;5102321;28;20048;-81
2022/07/19 19:35:22;;;;;;;7.70;2.95;;;;;;;;;;5088107;28;20537;-81
2022/07/19 19:38:07;;;;;;;9.32;2.42;;;;;;;;;;5088289;28;20039;-85
2022/07/19 19:40:52;;;;;;;6.63;2.42;;;;;;;;;;5088770;28;20085;-81
2022/07/19 19:43:36;;;;;;;6.93;2.63;;;;;;;;;;5088519;28;20030;-81
2022/07/19 19:46:21;;;;;;;4.53;2.30;;;;;;;;;;5087020;28;20047;-81
2022/07/19 19:49:05;;;;;;;6.35;2.38;;;;;;;;;;5075151;28;20451;-81
2022/07/19 19:51:50;;;;;;;7.43;2.72;;;;;;;;;;5088253;28;20086;-82
2022/07/19 19:54:34;;;;;;;7.32;2.50;;;;;;;;;;5088010;28;20103;-80
2022/07/19 19:57:19;;;;;;;8.43;2.63;;;;;;;;;;5086818;28;20031;-81
2022/07/19 20:00:04;;;;;;;4.80;2.42;;;;;;;;;;5087256;28;20117;-81
2022/07/19 20:02:49;;;;;;;5.72;2.35;;;;;;;;;;5088307;28;20043;-81
2022/07/19 20:05:33;;;;;;;7.85;2.30;;;;;;;;;;5086715;28;20404;-80
2022/07/19 20:08:18;;;;;;;7.05;2.60;;;;;;;;;;5073003;28;20095;-79
2022/07/19 20:11:03;;;;;;;6.95;2.47;;;;;;;;;;5073775;28;20075;-80
2022/07/19 20:13:47;;;;;;;6.30;2.65;;;;;;;;;;5074671;28;20067;-80
2022/07/19 20:16:32;;;;;;;8.00;2.60;;;;;;;;;;5073017;28;20125;-80
2022/07/19 20:19:17;;;;;;;5.38;2.72;;;;;;;;;;5073886;28;20523;-81
2022/07/19 20:22:02;;;;;;;6.43;2.60;;;;;;;;;;5074643;28;20054;-79
2022/07/19 20:24:47;;;;;;;5.45;2.40;;;;;;;;;;5074310;28;20059;-80
2022/07/19 20:27:31;;;;;;;6.25;2.45;;;;;;;;;;5073911;28;20515;-80
2022/07/19 20:30:17;;;;;;;6.88;2.72;;;;;;;;;;5085235;28;20030;-85
2022/07/19 20:33:01;;;;;;;8.50;2.92;;;;;;;;;;5077117;28;20067;-82
2022/07/19 20:35:46;;;;;;;8.82;2.30;;;;;;;;;;5082246;28;20109;-81
2022/07/19 20:38:30;;;;;;;9.68;2.92;;;;;;;;;;5086659;28;20510;-81
2022/07/19 20:41:15;;;;;;;6.18;2.92;;;;;;;;;;5074036;28;20078;-81
2022/07/19 20:43:59;;;;;;;6.43;2.90;;;;;;;;;;5101571;28;20047;-81
2022/07/19 20:46:44;;;;;;;4.93;2.53;;;;;;;;;;5073089;28;20397;-81
2022/07/19 20:49:29;;;;;;;6.40;2.85;;;;;;;;;;5073487;28;20102;-81
2022/07/19 20:52:14;;;;;;;5.75;2.55;;;;;;;;;;5078867;28;20119;-81
2022/07/19 20:54:58;;;;;;;5.10;2.65;;;;;;;;;;5072594;28;20079;-81
2022/07/19 20:57:43;;;;;;;7.22;2.65;;;;;;;;;;5073177;28;20095;-80
2022/07/19 21:00:28;;;;;;;4.85;2.65;;;;;;;;;;5073018;28;20039;-81
2022/07/19 21:03:13;;;;;;;5.00;2.50;;;;;;;;;;5073419;28;20039;-81
2022/07/19 21:05:57;;;;;;;12.73;3.40;;;;;;;;;;5101177;28;20093;-81
2022/07/19 21:08:42;;;;;;;8.65;2.70;;;;;;;;;;5078413;28;20052;-81
2022/07/19 21:11:26;;;;;;;10.70;3.20;;;;;;;;;;5072933;28;20051;-81
2022/07/19 21:14:11;;;;;;;10.00;2.70;;;;;;;;;;5072502;28;20039;-80
2022/07/19 21:16:55;;;;;;;7.40;3.00;;;;;;;;;;5064524;28;20508;-81
2022/07/19 21:19:40;;;;;;;7.80;3.30;;;;;;;;;;5096925;28;20035;-81
2022/07/19 21:22:24;;;;;;;4.43;2.65;;;;;;;;;;5073183;28;20397;-85
2022/07/19 21:25:09;;;;;;;4.95;2.47;;;;;;;;;;5086636;28;20040;-82
2022/07/19 21:27:53;;;;;;;7.13;2.78;;;;;;;;;;5073228;28;20039;-81
2022/07/19 21:30:38;;;;;;;5.47;3.50;;;;;;;;;;5072669;28;20116;-81
2022/07/19 21:33:22;;;;;;;4.68;2.60;;;;;;;;;;5071935;28;20036;-81
2022/07/19 21:36:07;;;;;;;6.80;2.72;;;;;;;;;;5072911;28;20063;-81
2022/07/19 21:38:52;;;;;;;6.55;2.80;;;;;;;;;;5072726;28;20051;-82
2022/07/19 21:41:36;;;;;;;7.72;2.97;;;;;;;;;;5085687;28;20071;-82
2022/07/19 21:44:21;;;;;;;8.82;2.50;;;;;;;;;;5085533;28;20039;-81
2022/07/19 21:47:08;;;;;;;7.50;3.08;;;;;;;;;;5071624;28;20039;-81
2022/07/19 21:49:53;;;;;;;9.25;2.47;;;;;;;;;;5072168;28;20043;-82
2022/07/19 21:52:37;;;;;;;6.60;2.88;;;;;;;;;;5072148;28;20027;-82
2022/07/19 21:55:22;;;;;;;8.70;2.88;;;;;;;;;;5068717;28;20114;-81
2022/07/19 21:58:06;;;;;;;4.32;2.28;;;;;;;;;;5072529;28;20043;-81
2022/07/19 22:00:51;;;;;;;4.07;2.40;;;;;;;;;;5072028;28;20043;-81
2022/07/19 22:03:36;;;;;;;5.22;2.50;;;;;;;;;;5070837;28;20163;-81
2022/07/19 22:06:20;;;;;;;7.40;3.15;;;;;;;;;;5072361;28;20134;-84
2022/07/19 22:09:05;;;;;;;6.85;2.70;;;;;;;;;;5072283;28;20043;-81
2022/07/19 22:11:49;;;;;;;4.05;2.38;;;;;;;;;;5071613;28;20055;-81
2022/07/19 22:14:34;;;;;;;10.68;2.78;;;;;;;;;;5071996;28;20059;-85
2022/07/19 22:17:18;;;;;;;4.97;2.75;;;;;;;;;;5068412;28;20043;-81
2022/07/19 22:20:03;;;;;;;8.23;2.50;;;;;;;;;;5071464;28;20031;-81
2022/07/19 22:22:48;;;;;;;3.90;2.67;;;;;;;;;;5071626;28;20058;-81
2022/07/19 22:25:33;;;;;;;8.05;3.55;;;;;;;;;;5072267;28;20043;-81
2022/07/19 22:28:17;;;;;;;5.05;3.30;;;;;;;;;;5085340;28;20047;-81
2022/07/19 22:31:02;;;;;;;6.40;2.60;;;;;;;;;;5085508;28;20499;-81
2022/07/19 22:33:46;;;;;;;7.22;2.92;;;;;;;;;;5085103;28;20412;-81
2022/07/19 22:36:31;;;;;;;6.60;2.92;;;;;;;;;;5071807;28;20106;-81
2022/07/19 22:39:16;;;;;;;8.68;2.90;;;;;;;;;;5072303;28;20055;-81
2022/07/19 22:44:41;;;;;;;6.55;2.60;;;;;;;;;;5136465;27;20412;-80
2022/07/19 22:47:26;;;;;;;6.25;2.60;;;;;;;;;;5102733;28;20046;-80
2022/07/19 22:50:10;;;;;;;6.15;2.75;;;;;;;;;;5114778;28;20395;-80
2022/07/19 22:52:55;;;;;;;7.30;3.13;;;;;;;;;;5129711;28;20043;-79
2022/07/19 22:55:40;;;;;;;7.63;2.85;;;;;;;;;;5114222;28;20033;-83
2022/07/19 22:58:24;;;;;;;7.85;3.28;;;;;;;;;;5129974;28;20061;-80
2022/07/19 23:01:09;;;;;;;5.22;2.60;;;;;;;;;;5130288;28;20034;-80
2022/07/19 23:03:54;;;;;;;10.60;2.70;;;;;;;;;;5114939;28;20039;-80
2022/07/19 23:06:40;;;;;;;7.18;2.25;;;;;;;;;;5114713;28;20552;-80
2022/07/19 23:09:24;;;;;;;5.57;2.38;;;;;;;;;;5116869;28;20038;-80
2022/07/19 23:12:09;;;;;;;8.07;2.50;;;;;;;;;;5114335;28;20062;-80
2022/07/19 23:14:53;;;;;;;6.85;3.83;;;;;;;;;;5113878;28;20030;-80
2022/07/19 23:17:38;;;;;;;9.20;2.60;;;;;;;;;;5114225;28;20070;-81
2022/07/19 23:20:23;;;;;;;5.03;2.72;;;;;;;;;;5114312;28;20075;-80
2022/07/19 23:23:07;;;;;;;6.68;2.95;;;;;;;;;;5113428;28;20047;-80
2022/07/19 23:25:52;;;;;;;7.50;3.72;;;;;;;;;;5129296;28;20058;-80
2022/07/19 23:28:36;;;;;;;5.95;3.00;;;;;;;;;;5099818;28;20045;-80
2022/07/19 23:33:59;;;;;;;9.95;3.85;;;;;;;;;;5138471;27;1274721;-80
2022/07/19 23:36:43;;;;;;;4.80;2.90;;;;;;;;;;5141582;27;20038;-79
2022/07/19 23:39:28;;;;;;;6.05;2.40;;;;;;;;;;5143226;27;20402;-80
2022/07/19 23:42:12;;;;;;;5.22;2.55;;;;;;;;;;5171564;27;20094;-80
2022/07/19 23:44:57;;;;;;;10.65;4.00;;;;;;;;;;5140858;27;20166;-79
2022/07/19 23:47:41;;;;;;;6.28;3.30;;;;;;;;;;5171741;27;20033;-80
2022/07/19 23:50:26;;;;;;;4.93;2.70;;;;;;;;;;5166600;27;20440;-79
2022/07/19 23:53:11;;;;;;;3.70;2.47;;;;;;;;;;5164229;27;20073;-80
2022/07/19 23:55:56;;;;;;;6.93;2.78;;;;;;;;;;5170943;27;20090;-80
2022/07/19 23:58:40;;;;;;;5.50;2.60;;;;;;;;;;5171414;27;20073;-80
